Bernard A — TCWN3 — position and weather

sailwx.info

Track history (hours):
 
Tides and Currents Weather Stations Pressure Air Temp Water Temp Dewpoint Dewpoint Depression Visibility Wind Speed Wind Dir Waves Ship Positions

Bernard A

Last reported at 2014-Dec-21 04:26 UTC. Time now 2014-Dec-21 19:24 UTC.
Position N 37°07' E 026°27'.

Length 184 m; draft 8.4 m.

Type: Ship (hazmat cat A). MMSI: 271040008.

Date/timePositionNaut miles runAvg speedWind from/ knotsBaromVisibWave heightAir tempDewpointWater temp
2014-Dec-21 04:26N 37°07' E 026°27'1514.4
2014-Dec-21 03:26N 37°17' E 026°13'1213.9
2014-Dec-21 02:33N 37°25' E 026°02'1514.2
2014-Dec-21 01:30N 37°35' E 025°48'1314.0
2014-Dec-21 00:33N 37°44' E 025°36'1414.1
2014-Dec-20 23:33N 37°54' E 025°23'1514.7
2014-Dec-20 22:33N 38°04' E 025°09'1514.6
2014-Dec-20 21:33N 38°13' E 024°55'17212.9
2014-Dec-20 08:08N 40°38' E 022°54'190 4.2
2014-Dec-18 10:32N 37°35' E 024°04'1312.8
2014-Dec-18 09:33N 37°37' E 023°48'1313.4
2014-Dec-18 08:33N 37°48' E 023°37'10 9.5
2014-Dec-18 07:33N 37°57' E 023°35'0 0.0
2014-Dec-18 06:30N 37°57' E 023°35'0 0.0
2014-Dec-18 05:33N 37°57' E 023°35'0 0.0
2014-Dec-18 04:33N 37°57' E 023°35'0 0.0
2014-Dec-18 03:33N 37°57' E 023°35'0 0.0
2014-Dec-18 02:33N 37°57' E 023°35'0 0.0
2014-Dec-18 01:33N 37°57' E 023°35'0 0.0
2014-Dec-18 00:33N 37°57' E 023°35'0 0.0
2014-Dec-17 23:33N 37°57' E 023°35'0 0.0
2014-Dec-17 22:33N 37°57' E 023°35'0 0.0
2014-Dec-17 21:33N 37°57' E 023°35'0 0.0
2014-Dec-17 20:33N 37°57' E 023°35'0 0.0
2014-Dec-17 19:33N 37°57' E 023°35'0 0.0
2014-Dec-17 18:30N 37°57' E 023°35'0 0.0
2014-Dec-17 17:33N 37°57' E 023°35'1 0.5
2014-Dec-17 16:34N 37°57' E 023°35'3 2.9
2014-Dec-17 15:33N 37°54' E 023°35'3 2.5
2014-Dec-17 14:32N 37°52' E 023°33'0 0.1
2014-Dec-17 13:31N 37°52' E 023°33'0 0.1
2014-Dec-17 12:31N 37°52' E 023°33'0 0.0
2014-Dec-17 11:31N 37°52' E 023°33'0 0.1
2014-Dec-17 10:31N 37°52' E 023°33'0 0.1
2014-Dec-17 09:31N 37°52' E 023°33'0 0.0
2014-Dec-17 08:31N 37°52' E 023°33'0 0.0
2014-Dec-17 07:31N 37°52' E 023°33'0 0.0
2014-Dec-17 06:31N 37°52' E 023°33'0 0.0
2014-Dec-17 05:31N 37°52' E 023°33'0 0.0
2014-Dec-17 04:31N 37°52' E 023°33'0 0.0
2014-Dec-17 03:31N 37°52' E 023°33'0 0.0
2014-Dec-17 02:31N 37°52' E 023°33'0 0.2
2014-Dec-17 01:33N 37°52' E 023°33'1 0.8
2014-Dec-17 00:33N 37°51' E 023°33'1 0.9
2014-Dec-16 23:33N 37°51' E 023°34'2 2.3
2014-Dec-16 22:33N 37°53' E 023°35'4 3.9
2014-Dec-16 21:31N 37°51' E 023°30'0 0.1
2014-Dec-16 20:31N 37°51' E 023°30'0 0.0
2014-Dec-16 19:31N 37°51' E 023°30'0 0.1
2014-Dec-16 18:31N 37°51' E 023°30'0 0.0
2014-Dec-16 17:31N 37°51' E 023°30'0 0.0
2014-Dec-16 16:31N 37°51' E 023°30'0 0.0
2014-Dec-16 15:31N 37°51' E 023°30'0 0.0
2014-Dec-16 14:31N 37°51' E 023°30'0 0.0
2014-Dec-16 13:31N 37°51' E 023°30'0 0.0
2014-Dec-16 12:31N 37°51' E 023°30'0 0.0
2014-Dec-16 11:31N 37°51' E 023°30'0 0.0
2014-Dec-16 10:31N 37°51' E 023°30'0 0.0
2014-Dec-16 09:31N 37°51' E 023°30'0 0.2
2014-Dec-16 08:31N 37°51' E 023°30'0 0.1
2014-Dec-16 07:31N 37°51' E 023°30'0 0.2
2014-Dec-16 06:31N 37°51' E 023°30'0 0.0
2014-Dec-16 05:29N 37°51' E 023°30'0 0.0
2014-Dec-16 04:15N 37°51' E 023°30'0 0.4
2014-Dec-16 03:32N 37°51' E 023°31'7 7.5
2014-Dec-16 02:32N 37°49' E 023°40'1211.9
2014-Dec-16 01:33N 37°38' E 023°47'1511.5
2014-Dec-16 00:16N 37°35' E 024°05'811.6
2014-Dec-15 23:33N 37°41' E 024°12'1212.0
2014-Dec-15 22:32N 37°48' E 024°24'1212.3
2014-Dec-15 21:33N 37°56' E 024°36'1512.6
2014-Dec-15 20:24N 38°09' E 024°45'1112.6
2014-Dec-15 19:32N 38°19' E 024°50'3612.1
2014-Dec-15 16:32N 38°51' E 025°12'1411.8
2014-Dec-15 15:21N 39°04' E 025°20'  
Track history (hours):
 
Tides and Currents Weather Stations Pressure Air Temp Water Temp Dewpoint Dewpoint Depression Visibility Wind Speed Wind Dir Waves Ship Positions

Bernard A

Last reported at 2014-Dec-21 04:26 UTC. Time now 2014-Dec-21 19:24 UTC.
Position N 37°07' E 026°27'.

Length 184 m; draft 8.4 m.

Type: Ship (hazmat cat A). MMSI: 271040008.

Date/timePositionNaut miles runAvg speedWind from/ knotsBaromVisibWave heightAir tempDewpointWater temp
2014-Dec-21 04:26N 37°07' E 026°27'1514.4
2014-Dec-21 03:26N 37°17' E 026°13'1213.9
2014-Dec-21 02:33N 37°25' E 026°02'1514.2
2014-Dec-21 01:30N 37°35' E 025°48'1314.0
2014-Dec-21 00:33N 37°44' E 025°36'1414.1
2014-Dec-20 23:33N 37°54' E 025°23'1514.7
2014-Dec-20 22:33N 38°04' E 025°09'1514.6
2014-Dec-20 21:33N 38°13' E 024°55'17212.9
2014-Dec-20 08:08N 40°38' E 022°54'190 4.2
2014-Dec-18 10:32N 37°35' E 024°04'1312.8
2014-Dec-18 09:33N 37°37' E 023°48'1313.4
2014-Dec-18 08:33N 37°48' E 023°37'10 9.5
2014-Dec-18 07:33N 37°57' E 023°35'0 0.0
2014-Dec-18 06:30N 37°57' E 023°35'0 0.0
2014-Dec-18 05:33N 37°57' E 023°35'0 0.0
2014-Dec-18 04:33N 37°57' E 023°35'0 0.0
2014-Dec-18 03:33N 37°57' E 023°35'0 0.0
2014-Dec-18 02:33N 37°57' E 023°35'0 0.0
2014-Dec-18 01:33N 37°57' E 023°35'0 0.0
2014-Dec-18 00:33N 37°57' E 023°35'0 0.0
2014-Dec-17 23:33N 37°57' E 023°35'0 0.0
2014-Dec-17 22:33N 37°57' E 023°35'0 0.0
2014-Dec-17 21:33N 37°57' E 023°35'0 0.0
2014-Dec-17 20:33N 37°57' E 023°35'0 0.0
2014-Dec-17 19:33N 37°57' E 023°35'0 0.0
2014-Dec-17 18:30N 37°57' E 023°35'0 0.0
2014-Dec-17 17:33N 37°57' E 023°35'1 0.5
2014-Dec-17 16:34N 37°57' E 023°35'3 2.9
2014-Dec-17 15:33N 37°54' E 023°35'3 2.5
2014-Dec-17 14:32N 37°52' E 023°33'0 0.1
2014-Dec-17 13:31N 37°52' E 023°33'0 0.1
2014-Dec-17 12:31N 37°52' E 023°33'0 0.0
2014-Dec-17 11:31N 37°52' E 023°33'0 0.1
2014-Dec-17 10:31N 37°52' E 023°33'0 0.1
2014-Dec-17 09:31N 37°52' E 023°33'0 0.0
2014-Dec-17 08:31N 37°52' E 023°33'0 0.0
2014-Dec-17 07:31N 37°52' E 023°33'0 0.0
2014-Dec-17 06:31N 37°52' E 023°33'0 0.0
2014-Dec-17 05:31N 37°52' E 023°33'0 0.0
2014-Dec-17 04:31N 37°52' E 023°33'0 0.0
2014-Dec-17 03:31N 37°52' E 023°33'0 0.0
2014-Dec-17 02:31N 37°52' E 023°33'0 0.2
2014-Dec-17 01:33N 37°52' E 023°33'1 0.8
2014-Dec-17 00:33N 37°51' E 023°33'1 0.9
2014-Dec-16 23:33N 37°51' E 023°34'2 2.3
2014-Dec-16 22:33N 37°53' E 023°35'4 3.9
2014-Dec-16 21:31N 37°51' E 023°30'0 0.1
2014-Dec-16 20:31N 37°51' E 023°30'0 0.0
2014-Dec-16 19:31N 37°51' E 023°30'0 0.1
2014-Dec-16 18:31N 37°51' E 023°30'0 0.0
2014-Dec-16 17:31N 37°51' E 023°30'0 0.0
2014-Dec-16 16:31N 37°51' E 023°30'0 0.0
2014-Dec-16 15:31N 37°51' E 023°30'0 0.0
2014-Dec-16 14:31N 37°51' E 023°30'0 0.0
2014-Dec-16 13:31N 37°51' E 023°30'0 0.0
2014-Dec-16 12:31N 37°51' E 023°30'0 0.0
2014-Dec-16 11:31N 37°51' E 023°30'0 0.0
2014-Dec-16 10:31N 37°51' E 023°30'0 0.0
2014-Dec-16 09:31N 37°51' E 023°30'0 0.2
2014-Dec-16 08:31N 37°51' E 023°30'0 0.1
2014-Dec-16 07:31N 37°51' E 023°30'0 0.2
2014-Dec-16 06:31N 37°51' E 023°30'0 0.0
2014-Dec-16 05:29N 37°51' E 023°30'0 0.0
2014-Dec-16 04:15N 37°51' E 023°30'0 0.4
2014-Dec-16 03:32N 37°51' E 023°31'7 7.5
2014-Dec-16 02:32N 37°49' E 023°40'1211.9
2014-Dec-16 01:33N 37°38' E 023°47'1511.5
2014-Dec-16 00:16N 37°35' E 024°05'811.6
2014-Dec-15 23:33N 37°41' E 024°12'1212.0
2014-Dec-15 22:32N 37°48' E 024°24'1212.3
2014-Dec-15 21:33N 37°56' E 024°36'1512.6
2014-Dec-15 20:24N 38°09' E 024°45'1112.6
2014-Dec-15 19:32N 38°19' E 024°50'3612.1
2014-Dec-15 16:32N 38°51' E 025°12'1411.8
2014-Dec-15 15:21N 39°04' E 025°20'  

Dump ship's entire track history